sensor_id;sensor_type;location;lat;lon;timestamp;P1;durP1;ratioP1;P2;durP2;ratioP2
64923;SDS011;51436;44.692;39.214;2023-01-28T00:00:09;21.35;;;10.35;;
64923;SDS011;51436;44.692;39.214;2023-01-28T00:02:36;16.75;;;9.02;;
64923;SDS011;51436;44.692;39.214;2023-01-28T00:05:03;24.42;;;11.85;;
64923;SDS011;51436;44.692;39.214;2023-01-28T00:07:29;20.42;;;11.82;;
64923;SDS011;51436;44.692;39.214;2023-01-28T00:21:07;18.55;;;8.15;;
64923;SDS011;51436;44.692;39.214;2023-01-28T00:23:38;15.80;;;8.75;;
64923;SDS011;51436;44.692;39.214;2023-01-28T00:26:08;14.68;;;8.98;;
64923;SDS011;51436;44.692;39.214;2023-01-28T00:28:39;13.60;;;8.00;;
64923;SDS011;51436;44.692;39.214;2023-01-28T00:31:06;16.67;;;9.02;;
64923;SDS011;51436;44.692;39.214;2023-01-28T00:33:35;35.65;;;9.60;;
64923;SDS011;51436;44.692;39.214;2023-01-28T00:36:02;24.33;;;10.77;;
64923;SDS011;51436;44.692;39.214;2023-01-28T00:38:31;22.50;;;8.65;;
64923;SDS011;51436;44.692;39.214;2023-01-28T00:41:07;15.73;;;8.55;;
64923;SDS011;51436;44.692;39.214;2023-01-28T00:43:36;18.40;;;8.75;;
64923;SDS011;51436;44.692;39.214;2023-01-28T00:46:03;18.75;;;10.40;;
64923;SDS011;51436;44.692;39.214;2023-01-28T00:48:35;16.77;;;8.90;;
64923;SDS011;51436;44.692;39.214;2023-01-28T00:51:05;33.43;;;13.93;;
64923;SDS011;51436;44.692;39.214;2023-01-28T00:53:32;19.90;;;11.52;;
64923;SDS011;51436;44.692;39.214;2023-01-28T00:56:03;21.60;;;12.52;;
64923;SDS011;51436;44.692;39.214;2023-01-28T00:58:31;22.30;;;12.68;;
64923;SDS011;51436;44.692;39.214;2023-01-28T01:01:11;23.92;;;11.35;;
64923;SDS011;51436;44.692;39.214;2023-01-28T01:03:41;22.50;;;11.73;;
64923;SDS011;51436;44.692;39.214;2023-01-28T01:06:08;16.38;;;9.00;;
64923;SDS011;51436;44.692;39.214;2023-01-28T01:08:37;22.98;;;9.55;;
64923;SDS011;51436;44.692;39.214;2023-01-28T01:11:08;24.25;;;12.80;;
64923;SDS011;51436;44.692;39.214;2023-01-28T01:13:36;19.35;;;12.32;;
64923;SDS011;51436;44.692;39.214;2023-01-28T01:16:07;25.30;;;11.13;;
64923;SDS011;51436;44.692;39.214;2023-01-28T01:18:38;25.48;;;9.68;;
64923;SDS011;51436;44.692;39.214;2023-01-28T01:21:09;23.10;;;13.48;;
64923;SDS011;51436;44.692;39.214;2023-01-28T01:23:38;25.30;;;12.32;;
64923;SDS011;51436;44.692;39.214;2023-01-28T01:26:05;25.48;;;14.57;;
64923;SDS011;51436;44.692;39.214;2023-01-28T01:28:33;46.33;;;19.77;;
64923;SDS011;51436;44.692;39.214;2023-01-28T01:31:01;32.95;;;14.43;;
64923;SDS011;51436;44.692;39.214;2023-01-28T01:33:30;31.48;;;13.63;;
64923;SDS011;51436;44.692;39.214;2023-01-28T01:35:57;34.55;;;15.88;;
64923;SDS011;51436;44.692;39.214;2023-01-28T01:38:25;29.27;;;15.20;;
64923;SDS011;51436;44.692;39.214;2023-01-28T01:40:54;33.47;;;14.20;;
64923;SDS011;51436;44.692;39.214;2023-01-28T01:43:22;27.75;;;11.07;;
64923;SDS011;51436;44.692;39.214;2023-01-28T01:45:50;26.48;;;11.52;;
64923;SDS011;51436;44.692;39.214;2023-01-28T01:48:23;20.40;;;10.88;;
64923;SDS011;51436;44.692;39.214;2023-01-28T01:50:53;29.90;;;11.38;;
64923;SDS011;51436;44.692;39.214;2023-01-28T01:53:38;17.27;;;9.10;;
64923;SDS011;51436;44.692;39.214;2023-01-28T01:56:09;15.95;;;8.95;;
64923;SDS011;51436;44.692;39.214;2023-01-28T01:58:40;24.98;;;8.82;;
64923;SDS011;51436;44.692;39.214;2023-01-28T02:01:09;19.48;;;8.50;;
64923;SDS011;51436;44.692;39.214;2023-01-28T02:04:22;27.15;;;12.38;;
64923;SDS011;51436;44.692;39.214;2023-01-28T02:06:54;24.13;;;13.10;;
64923;SDS011;51436;44.692;39.214;2023-01-28T02:09:24;27.55;;;13.13;;
64923;SDS011;51436;44.692;39.214;2023-01-28T02:11:53;38.75;;;10.48;;
64923;SDS011;51436;44.692;39.214;2023-01-28T02:14:23;18.02;;;8.18;;
64923;SDS011;51436;44.692;39.214;2023-01-28T02:16:53;14.40;;;8.63;;
64923;SDS011;51436;44.692;39.214;2023-01-28T02:19:20;24.75;;;10.25;;
64923;SDS011;51436;44.692;39.214;2023-01-28T02:24:43;23.50;;;10.32;;
64923;SDS011;51436;44.692;39.214;2023-01-28T02:30:28;13.10;;;7.63;;
64923;SDS011;51436;44.692;39.214;2023-01-28T02:33:02;16.98;;;9.55;;
64923;SDS011;51436;44.692;39.214;2023-01-28T02:41:07;19.42;;;8.32;;
64923;SDS011;51436;44.692;39.214;2023-01-28T02:43:41;22.75;;;10.68;;
64923;SDS011;51436;44.692;39.214;2023-01-28T02:46:14;15.10;;;8.35;;
64923;SDS011;51436;44.692;39.214;2023-01-28T02:49:14;22.98;;;9.02;;
64923;SDS011;51436;44.692;39.214;2023-01-28T02:54:55;20.67;;;8.95;;
64923;SDS011;51436;44.692;39.214;2023-01-28T02:57:42;16.92;;;9.00;;
64923;SDS011;51436;44.692;39.214;2023-01-28T03:00:22;17.52;;;9.60;;
64923;SDS011;51436;44.692;39.214;2023-01-28T03:03:07;16.98;;;8.63;;
64923;SDS011;51436;44.692;39.214;2023-01-28T03:05:57;14.07;;;7.60;;
64923;SDS011;51436;44.692;39.214;2023-01-28T03:08:38;20.20;;;9.02;;
64923;SDS011;51436;44.692;39.214;2023-01-28T03:11:29;18.95;;;9.85;;
64923;SDS011;51436;44.692;39.214;2023-01-28T03:14:19;15.57;;;9.35;;
64923;SDS011;51436;44.692;39.214;2023-01-28T03:17:07;22.17;;;11.25;;
64923;SDS011;51436;44.692;39.214;2023-01-28T03:19:58;24.58;;;9.52;;
64923;SDS011;51436;44.692;39.214;2023-01-28T03:22:44;15.85;;;8.57;;
64923;SDS011;51436;44.692;39.214;2023-01-28T03:25:35;20.80;;;10.10;;
64923;SDS011;51436;44.692;39.214;2023-01-28T03:28:23;33.88;;;12.52;;
64923;SDS011;51436;44.692;39.214;2023-01-28T03:31:12;17.05;;;9.23;;
64923;SDS011;51436;44.692;39.214;2023-01-28T03:34:00;20.08;;;10.15;;
64923;SDS011;51436;44.692;39.214;2023-01-28T03:36:46;29.63;;;10.70;;
64923;SDS011;51436;44.692;39.214;2023-01-28T03:39:38;24.88;;;11.73;;
64923;SDS011;51436;44.692;39.214;2023-01-28T03:42:11;24.98;;;11.60;;
64923;SDS011;51436;44.692;39.214;2023-01-28T03:45:01;17.75;;;8.10;;
64923;SDS011;51436;44.692;39.214;2023-01-28T03:47:31;25.40;;;9.95;;
64923;SDS011;51436;44.692;39.214;2023-01-28T03:50:00;37.17;;;9.35;;
64923;SDS011;51436;44.692;39.214;2023-01-28T03:52:30;42.40;;;9.60;;
64923;SDS011;51436;44.692;39.214;2023-01-28T03:55:21;17.50;;;8.43;;
64923;SDS011;51436;44.692;39.214;2023-01-28T03:57:51;23.27;;;9.52;;
64923;SDS011;51436;44.692;39.214;2023-01-28T04:00:18;17.42;;;9.88;;
64923;SDS011;51436;44.692;39.214;2023-01-28T04:02:45;19.65;;;9.85;;
64923;SDS011;51436;44.692;39.214;2023-01-28T04:05:14;13.63;;;8.45;;
64923;SDS011;51436;44.692;39.214;2023-01-28T04:07:48;14.75;;;8.63;;
64923;SDS011;51436;44.692;39.214;2023-01-28T04:10:39;19.65;;;10.57;;
64923;SDS011;51436;44.692;39.214;2023-01-28T04:13:17;28.10;;;10.10;;
64923;SDS011;51436;44.692;39.214;2023-01-28T04:15:43;17.38;;;9.40;;
64923;SDS011;51436;44.692;39.214;2023-01-28T04:18:11;20.38;;;10.02;;
64923;SDS011;51436;44.692;39.214;2023-01-28T04:20:38;21.80;;;9.15;;
64923;SDS011;51436;44.692;39.214;2023-01-28T04:23:06;20.83;;;8.73;;
64923;SDS011;51436;44.692;39.214;2023-01-28T04:25:33;22.63;;;10.30;;
64923;SDS011;51436;44.692;39.214;2023-01-28T04:28:00;16.52;;;9.05;;
64923;SDS011;51436;44.692;39.214;2023-01-28T04:30:29;20.25;;;9.25;;
64923;SDS011;51436;44.692;39.214;2023-01-28T04:33:14;57.13;;;13.13;;
64923;SDS011;51436;44.692;39.214;2023-01-28T04:35:51;69.05;;;25.90;;
64923;SDS011;51436;44.692;39.214;2023-01-28T04:38:41;84.95;;;26.10;;
64923;SDS011;51436;44.692;39.214;2023-01-28T04:41:27;22.10;;;10.20;;
64923;SDS011;51436;44.692;39.214;2023-01-28T04:43:58;24.23;;;11.02;;
64923;SDS011;51436;44.692;39.214;2023-01-28T04:46:53;16.75;;;8.73;;
64923;SDS011;51436;44.692;39.214;2023-01-28T04:49:44;21.35;;;9.57;;
64923;SDS011;51436;44.692;39.214;2023-01-28T04:52:37;39.47;;;9.77;;
64923;SDS011;51436;44.692;39.214;2023-01-28T04:55:16;26.75;;;10.07;;
64923;SDS011;51436;44.692;39.214;2023-01-28T04:57:45;25.92;;;10.65;;
64923;SDS011;51436;44.692;39.214;2023-01-28T05:00:13;28.08;;;10.45;;
64923;SDS011;51436;44.692;39.214;2023-01-28T05:02:40;32.58;;;10.75;;
64923;SDS011;51436;44.692;39.214;2023-01-28T05:05:06;41.05;;;11.10;;
64923;SDS011;51436;44.692;39.214;2023-01-28T05:07:55;28.88;;;13.20;;
64923;SDS011;51436;44.692;39.214;2023-01-28T05:10:23;34.35;;;16.17;;
64923;SDS011;51436;44.692;39.214;2023-01-28T05:12:52;33.47;;;15.02;;
64923;SDS011;51436;44.692;39.214;2023-01-28T05:15:19;26.58;;;12.50;;
64923;SDS011;51436;44.692;39.214;2023-01-28T05:17:47;31.70;;;12.77;;
64923;SDS011;51436;44.692;39.214;2023-01-28T05:20:16;22.77;;;9.98;;
64923;SDS011;51436;44.692;39.214;2023-01-28T05:22:46;26.38;;;10.80;;
64923;SDS011;51436;44.692;39.214;2023-01-28T05:25:19;21.02;;;10.63;;
64923;SDS011;51436;44.692;39.214;2023-01-28T05:27:49;14.55;;;8.27;;
64923;SDS011;51436;44.692;39.214;2023-01-28T05:30:19;24.02;;;8.65;;
64923;SDS011;51436;44.692;39.214;2023-01-28T05:32:46;14.60;;;8.52;;
64923;SDS011;51436;44.692;39.214;2023-01-28T05:35:17;23.90;;;9.82;;
64923;SDS011;51436;44.692;39.214;2023-01-28T05:37:43;16.00;;;10.50;;
64923;SDS011;51436;44.692;39.214;2023-01-28T05:40:11;30.40;;;15.80;;
64923;SDS011;51436;44.692;39.214;2023-01-28T05:42:37;30.98;;;16.45;;
64923;SDS011;51436;44.692;39.214;2023-01-28T05:45:19;42.75;;;21.00;;
64923;SDS011;51436;44.692;39.214;2023-01-28T05:48:02;36.03;;;18.85;;
64923;SDS011;51436;44.692;39.214;2023-01-28T05:50:55;28.13;;;15.10;;
64923;SDS011;51436;44.692;39.214;2023-01-28T05:53:31;22.58;;;13.85;;
64923;SDS011;51436;44.692;39.214;2023-01-28T05:55:57;24.75;;;11.40;;
64923;SDS011;51436;44.692;39.214;2023-01-28T05:58:24;19.45;;;11.75;;
64923;SDS011;51436;44.692;39.214;2023-01-28T06:00:54;19.83;;;11.10;;
64923;SDS011;51436;44.692;39.214;2023-01-28T06:03:26;17.85;;;8.15;;
64923;SDS011;51436;44.692;39.214;2023-01-28T06:05:54;15.23;;;7.97;;
64923;SDS011;51436;44.692;39.214;2023-01-28T06:08:21;12.43;;;8.43;;
64923;SDS011;51436;44.692;39.214;2023-01-28T06:10:47;31.02;;;7.50;;
64923;SDS011;51436;44.692;39.214;2023-01-28T06:13:14;11.65;;;7.13;;
64923;SDS011;51436;44.692;39.214;2023-01-28T06:16:09;16.35;;;8.43;;
64923;SDS011;51436;44.692;39.214;2023-01-28T06:19:02;18.73;;;7.80;;
64923;SDS011;51436;44.692;39.214;2023-01-28T06:29:24;20.90;;;9.32;;
64923;SDS011;51436;44.692;39.214;2023-01-28T06:31:52;18.33;;;9.43;;
64923;SDS011;51436;44.692;39.214;2023-01-28T06:34:19;23.08;;;10.85;;
64923;SDS011;51436;44.692;39.214;2023-01-28T06:36:45;15.30;;;9.35;;
64923;SDS011;51436;44.692;39.214;2023-01-28T06:39:12;21.17;;;11.60;;
64923;SDS011;51436;44.692;39.214;2023-01-28T06:41:38;27.50;;;10.68;;
64923;SDS011;51436;44.692;39.214;2023-01-28T06:44:04;26.17;;;10.70;;
64923;SDS011;51436;44.692;39.214;2023-01-28T06:46:31;22.25;;;10.73;;
64923;SDS011;51436;44.692;39.214;2023-01-28T06:48:57;26.42;;;12.63;;
64923;SDS011;51436;44.692;39.214;2023-01-28T06:51:23;23.33;;;11.18;;
64923;SDS011;51436;44.692;39.214;2023-01-28T06:53:50;26.83;;;11.85;;
64923;SDS011;51436;44.692;39.214;2023-01-28T06:56:16;21.73;;;11.63;;
64923;SDS011;51436;44.692;39.214;2023-01-28T06:58:43;22.60;;;12.68;;
64923;SDS011;51436;44.692;39.214;2023-01-28T07:01:09;25.95;;;12.07;;
64923;SDS011;51436;44.692;39.214;2023-01-28T07:03:36;20.25;;;11.73;;
64923;SDS011;51436;44.692;39.214;2023-01-28T07:06:02;43.55;;;13.88;;
64923;SDS011;51436;44.692;39.214;2023-01-28T07:08:29;43.85;;;13.20;;
64923;SDS011;51436;44.692;39.214;2023-01-28T07:10:55;18.67;;;11.18;;
64923;SDS011;51436;44.692;39.214;2023-01-28T07:13:22;25.50;;;12.82;;
64923;SDS011;51436;44.692;39.214;2023-01-28T07:15:48;25.33;;;13.82;;
64923;SDS011;51436;44.692;39.214;2023-01-28T07:18:15;31.13;;;14.23;;
64923;SDS011;51436;44.692;39.214;2023-01-28T07:20:41;26.08;;;12.45;;
64923;SDS011;51436;44.692;39.214;2023-01-28T07:23:08;26.60;;;12.65;;
64923;SDS011;51436;44.692;39.214;2023-01-28T07:25:34;25.98;;;12.45;;
64923;SDS011;51436;44.692;39.214;2023-01-28T07:28:00;26.70;;;11.60;;
64923;SDS011;51436;44.692;39.214;2023-01-28T07:30:27;23.30;;;13.05;;
64923;SDS011;51436;44.692;39.214;2023-01-28T07:32:57;34.17;;;14.48;;
64923;SDS011;51436;44.692;39.214;2023-01-28T07:35:24;24.90;;;11.98;;
64923;SDS011;51436;44.692;39.214;2023-01-28T07:37:52;29.10;;;15.45;;
64923;SDS011;51436;44.692;39.214;2023-01-28T07:40:23;39.97;;;17.83;;
64923;SDS011;51436;44.692;39.214;2023-01-28T07:42:50;59.28;;;19.80;;
64923;SDS011;51436;44.692;39.214;2023-01-28T07:45:20;36.72;;;17.48;;
64923;SDS011;51436;44.692;39.214;2023-01-28T07:47:57;40.92;;;20.60;;
64923;SDS011;51436;44.692;39.214;2023-01-28T07:50:26;37.95;;;17.77;;
64923;SDS011;51436;44.692;39.214;2023-01-28T07:52:54;50.70;;;17.08;;
64923;SDS011;51436;44.692;39.214;2023-01-28T07:55:21;35.47;;;14.50;;
64923;SDS011;51436;44.692;39.214;2023-01-28T07:57:50;46.83;;;18.85;;
64923;SDS011;51436;44.692;39.214;2023-01-28T08:00:18;26.05;;;14.52;;
64923;SDS011;51436;44.692;39.214;2023-01-28T08:02:46;41.65;;;17.75;;
64923;SDS011;51436;44.692;39.214;2023-01-28T08:05:16;29.50;;;16.83;;
64923;SDS011;51436;44.692;39.214;2023-01-28T08:07:44;39.50;;;14.15;;
64923;SDS011;51436;44.692;39.214;2023-01-28T08:10:13;34.78;;;15.35;;
64923;SDS011;51436;44.692;39.214;2023-01-28T08:12:49;45.88;;;17.05;;
64923;SDS011;51436;44.692;39.214;2023-01-28T08:15:20;59.13;;;25.58;;
64923;SDS011;51436;44.692;39.214;2023-01-28T08:17:47;35.40;;;13.68;;
64923;SDS011;51436;44.692;39.214;2023-01-28T08:20:14;26.88;;;12.63;;
64923;SDS011;51436;44.692;39.214;2023-01-28T08:22:41;22.65;;;11.05;;
64923;SDS011;51436;44.692;39.214;2023-01-28T08:25:07;23.27;;;10.45;;
64923;SDS011;51436;44.692;39.214;2023-01-28T08:27:34;19.60;;;10.40;;
64923;SDS011;51436;44.692;39.214;2023-01-28T08:30:00;21.13;;;10.30;;
64923;SDS011;51436;44.692;39.214;2023-01-28T08:32:27;23.98;;;10.82;;
64923;SDS011;51436;44.692;39.214;2023-01-28T08:34:55;26.38;;;12.95;;
64923;SDS011;51436;44.692;39.214;2023-01-28T08:37:22;52.30;;;15.98;;
64923;SDS011;51436;44.692;39.214;2023-01-28T08:39:48;28.30;;;13.55;;
64923;SDS011;51436;44.692;39.214;2023-01-28T08:42:15;28.48;;;13.75;;
64923;SDS011;51436;44.692;39.214;2023-01-28T08:44:42;24.92;;;13.77;;
64923;SDS011;51436;44.692;39.214;2023-01-28T08:47:08;44.88;;;15.18;;
64923;SDS011;51436;44.692;39.214;2023-01-28T08:49:34;27.10;;;13.90;;
64923;SDS011;51436;44.692;39.214;2023-01-28T08:52:01;33.08;;;14.18;;
64923;SDS011;51436;44.692;39.214;2023-01-28T08:54:27;31.40;;;14.70;;
64923;SDS011;51436;44.692;39.214;2023-01-28T08:56:53;29.55;;;14.25;;
64923;SDS011;51436;44.692;39.214;2023-01-28T08:59:19;35.15;;;14.60;;
64923;SDS011;51436;44.692;39.214;2023-01-28T09:01:46;25.30;;;12.98;;
64923;SDS011;51436;44.692;39.214;2023-01-28T09:04:12;35.53;;;14.38;;
64923;SDS011;51436;44.692;39.214;2023-01-28T09:06:39;34.08;;;14.23;;
64923;SDS011;51436;44.692;39.214;2023-01-28T09:09:05;21.40;;;11.38;;
64923;SDS011;51436;44.692;39.214;2023-01-28T09:11:31;30.80;;;12.65;;
64923;SDS011;51436;44.692;39.214;2023-01-28T09:13:57;24.65;;;14.20;;
64923;SDS011;51436;44.692;39.214;2023-01-28T09:16:24;32.75;;;16.67;;
64923;SDS011;51436;44.692;39.214;2023-01-28T09:18:51;41.38;;;16.17;;
64923;SDS011;51436;44.692;39.214;2023-01-28T09:21:19;27.85;;;13.60;;
64923;SDS011;51436;44.692;39.214;2023-01-28T09:23:46;33.20;;;12.35;;
64923;SDS011;51436;44.692;39.214;2023-01-28T09:26:12;29.88;;;11.25;;
64923;SDS011;51436;44.692;39.214;2023-01-28T09:28:38;23.92;;;11.07;;
64923;SDS011;51436;44.692;39.214;2023-01-28T09:31:10;28.48;;;12.60;;
64923;SDS011;51436;44.692;39.214;2023-01-28T09:33:38;30.75;;;12.88;;
64923;SDS011;51436;44.692;39.214;2023-01-28T09:36:06;33.67;;;13.30;;
64923;SDS011;51436;44.692;39.214;2023-01-28T09:38:33;26.83;;;12.82;;
64923;SDS011;51436;44.692;39.214;2023-01-28T09:41:01;34.95;;;13.63;;
64923;SDS011;51436;44.692;39.214;2023-01-28T09:46:29;30.48;;;12.93;;
64923;SDS011;51436;44.692;39.214;2023-01-28T09:49:10;27.88;;;13.50;;
64923;SDS011;51436;44.692;39.214;2023-01-28T09:51:49;29.08;;;15.60;;
64923;SDS011;51436;44.692;39.214;2023-01-28T09:57:24;42.47;;;16.00;;
64923;SDS011;51436;44.692;39.214;2023-01-28T09:59:53;37.50;;;14.93;;
64923;SDS011;51436;44.692;39.214;2023-01-28T10:02:27;41.90;;;16.05;;
64923;SDS011;51436;44.692;39.214;2023-01-28T10:05:15;46.80;;;15.20;;
64923;SDS011;51436;44.692;39.214;2023-01-28T10:10:32;29.23;;;14.13;;
64923;SDS011;51436;44.692;39.214;2023-01-28T10:13:06;32.08;;;14.80;;
64923;SDS011;51436;44.692;39.214;2023-01-28T10:21:03;37.33;;;13.20;;
64923;SDS011;51436;44.692;39.214;2023-01-28T10:23:48;32.65;;;13.60;;
64923;SDS011;51436;44.692;39.214;2023-01-28T10:26:20;31.15;;;14.07;;
64923;SDS011;51436;44.692;39.214;2023-01-28T10:28:53;33.03;;;13.38;;
64923;SDS011;51436;44.692;39.214;2023-01-28T10:31:31;33.10;;;15.55;;
64923;SDS011;51436;44.692;39.214;2023-01-28T10:36:28;23.13;;;13.23;;
64923;SDS011;51436;44.692;39.214;2023-01-28T10:38:55;23.92;;;11.45;;
64923;SDS011;51436;44.692;39.214;2023-01-28T10:41:21;23.17;;;12.57;;
64923;SDS011;51436;44.692;39.214;2023-01-28T10:43:50;26.35;;;10.82;;
64923;SDS011;51436;44.692;39.214;2023-01-28T10:46:21;28.20;;;14.02;;
64923;SDS011;51436;44.692;39.214;2023-01-28T10:49:06;23.15;;;13.07;;
64923;SDS011;51436;44.692;39.214;2023-01-28T10:51:43;21.50;;;12.10;;
64923;SDS011;51436;44.692;39.214;2023-01-28T10:54:23;37.65;;;12.25;;
64923;SDS011;51436;44.692;39.214;2023-01-28T10:57:11;20.40;;;8.43;;
64923;SDS011;51436;44.692;39.214;2023-01-28T10:59:38;25.67;;;12.98;;
64923;SDS011;51436;44.692;39.214;2023-01-28T11:02:25;26.98;;;11.07;;
64923;SDS011;51436;44.692;39.214;2023-01-28T11:05:01;25.17;;;10.25;;
64923;SDS011;51436;44.692;39.214;2023-01-28T11:07:45;20.05;;;10.25;;
64923;SDS011;51436;44.692;39.214;2023-01-28T11:10:27;16.45;;;9.90;;
64923;SDS011;51436;44.692;39.214;2023-01-28T11:12:57;25.27;;;12.13;;
64923;SDS011;51436;44.692;39.214;2023-01-28T11:15:25;26.02;;;11.35;;
64923;SDS011;51436;44.692;39.214;2023-01-28T11:17:59;26.25;;;12.45;;
64923;SDS011;51436;44.692;39.214;2023-01-28T11:20:29;35.08;;;13.77;;
64923;SDS011;51436;44.692;39.214;2023-01-28T11:23:01;20.52;;;11.13;;
64923;SDS011;51436;44.692;39.214;2023-01-28T11:27:57;21.25;;;10.60;;
64923;SDS011;51436;44.692;39.214;2023-01-28T11:30:27;17.40;;;10.18;;
64923;SDS011;51436;44.692;39.214;2023-01-28T11:33:15;30.80;;;14.77;;
64923;SDS011;51436;44.692;39.214;2023-01-28T11:38:22;21.52;;;10.82;;
64923;SDS011;51436;44.692;39.214;2023-01-28T11:40:50;33.63;;;10.15;;
64923;SDS011;51436;44.692;39.214;2023-01-28T11:43:19;18.85;;;9.18;;
64923;SDS011;51436;44.692;39.214;2023-01-28T11:45:54;21.00;;;9.15;;
64923;SDS011;51436;44.692;39.214;2023-01-28T11:48:30;26.40;;;11.38;;
64923;SDS011;51436;44.692;39.214;2023-01-28T11:51:30;23.80;;;11.95;;
64923;SDS011;51436;44.692;39.214;2023-01-28T11:54:10;25.85;;;12.75;;
64923;SDS011;51436;44.692;39.214;2023-01-28T12:10:10;20.58;;;9.60;;
64923;SDS011;51436;44.692;39.214;2023-01-28T12:21:03;30.30;;;14.02;;
64923;SDS011;51436;44.692;39.214;2023-01-28T12:41:24;29.73;;;14.90;;
64923;SDS011;51436;44.692;39.214;2023-01-28T12:44:01;25.73;;;13.10;;
64923;SDS011;51436;44.692;39.214;2023-01-28T12:46:43;26.17;;;12.35;;
64923;SDS011;51436;44.692;39.214;2023-01-28T12:52:20;28.05;;;11.45;;
64923;SDS011;51436;44.692;39.214;2023-01-28T12:55:00;31.60;;;14.27;;
64923;SDS011;51436;44.692;39.214;2023-01-28T12:57:42;24.55;;;12.90;;
64923;SDS011;51436;44.692;39.214;2023-01-28T13:08:17;47.53;;;22.67;;
64923;SDS011;51436;44.692;39.214;2023-01-28T13:10:48;52.70;;;23.00;;
64923;SDS011;51436;44.692;39.214;2023-01-28T13:13:26;51.25;;;24.42;;
64923;SDS011;51436;44.692;39.214;2023-01-28T13:15:56;35.15;;;17.00;;
64923;SDS011;51436;44.692;39.214;2023-01-28T13:18:34;33.70;;;16.90;;
64923;SDS011;51436;44.692;39.214;2023-01-28T13:26:35;41.25;;;19.30;;
64923;SDS011;51436;44.692;39.214;2023-01-28T13:29:46;35.97;;;20.02;;
64923;SDS011;51436;44.692;39.214;2023-01-28T13:31:58;58.17;;;24.85;;
64923;SDS011;51436;44.692;39.214;2023-01-28T13:37:16;56.38;;;30.25;;
64923;SDS011;51436;44.692;39.214;2023-01-28T13:39:50;50.72;;;27.40;;
64923;SDS011;51436;44.692;39.214;2023-01-28T13:42:27;71.45;;;30.33;;
64923;SDS011;51436;44.692;39.214;2023-01-28T13:44:55;70.82;;;32.95;;
64923;SDS011;51436;44.692;39.214;2023-01-28T13:47:56;56.80;;;29.92;;
64923;SDS011;51436;44.692;39.214;2023-01-28T13:50:28;50.22;;;28.05;;
64923;SDS011;51436;44.692;39.214;2023-01-28T13:53:49;49.60;;;26.77;;
64923;SDS011;51436;44.692;39.214;2023-01-28T13:56:20;49.78;;;21.42;;
64923;SDS011;51436;44.692;39.214;2023-01-28T14:07:51;47.17;;;25.27;;
64923;SDS011;51436;44.692;39.214;2023-01-28T14:10:49;33.92;;;16.42;;
64923;SDS011;51436;44.692;39.214;2023-01-28T14:13:50;38.75;;;19.05;;
64923;SDS011;51436;44.692;39.214;2023-01-28T14:19:07;43.88;;;19.05;;
64923;SDS011;51436;44.692;39.214;2023-01-28T14:21:37;37.55;;;18.85;;
64923;SDS011;51436;44.692;39.214;2023-01-28T14:24:03;52.08;;;19.67;;
64923;SDS011;51436;44.692;39.214;2023-01-28T14:26:33;44.85;;;19.02;;
64923;SDS011;51436;44.692;39.214;2023-01-28T14:32:43;47.13;;;20.73;;
64923;SDS011;51436;44.692;39.214;2023-01-28T14:34:53;44.83;;;20.63;;
64923;SDS011;51436;44.692;39.214;2023-01-28T14:37:24;59.88;;;22.48;;
64923;SDS011;51436;44.692;39.214;2023-01-28T14:40:03;47.40;;;20.38;;
64923;SDS011;51436;44.692;39.214;2023-01-28T14:42:36;49.22;;;23.30;;
64923;SDS011;51436;44.692;39.214;2023-01-28T14:45:13;42.75;;;23.05;;
64923;SDS011;51436;44.692;39.214;2023-01-28T14:48:11;84.63;;;35.15;;
64923;SDS011;51436;44.692;39.214;2023-01-28T14:54:01;48.75;;;23.83;;
64923;SDS011;51436;44.692;39.214;2023-01-28T15:01:46;57.42;;;23.88;;
64923;SDS011;51436;44.692;39.214;2023-01-28T15:04:26;39.22;;;22.60;;
64923;SDS011;51436;44.692;39.214;2023-01-28T15:07:01;48.03;;;25.30;;
64923;SDS011;51436;44.692;39.214;2023-01-28T15:10:00;45.10;;;22.85;;
64923;SDS011;51436;44.692;39.214;2023-01-28T15:12:28;34.25;;;17.67;;
64923;SDS011;51436;44.692;39.214;2023-01-28T15:15:06;60.65;;;25.48;;
64923;SDS011;51436;44.692;39.214;2023-01-28T15:17:37;50.80;;;23.20;;
64923;SDS011;51436;44.692;39.214;2023-01-28T15:20:05;44.70;;;19.60;;
64923;SDS011;51436;44.692;39.214;2023-01-28T15:22:33;36.65;;;18.77;;
64923;SDS011;51436;44.692;39.214;2023-01-28T15:24:59;47.25;;;22.52;;
64923;SDS011;51436;44.692;39.214;2023-01-28T15:27:29;45.50;;;20.55;;
64923;SDS011;51436;44.692;39.214;2023-01-28T15:29:57;49.38;;;23.23;;
64923;SDS011;51436;44.692;39.214;2023-01-28T15:32:26;45.20;;;20.60;;
64923;SDS011;51436;44.692;39.214;2023-01-28T15:34:54;43.38;;;19.88;;
64923;SDS011;51436;44.692;39.214;2023-01-28T15:37:23;43.42;;;19.98;;
64923;SDS011;51436;44.692;39.214;2023-01-28T15:40:00;49.05;;;24.85;;
64923;SDS011;51436;44.692;39.214;2023-01-28T15:42:31;44.17;;;21.88;;
64923;SDS011;51436;44.692;39.214;2023-01-28T15:44:59;56.17;;;25.27;;
64923;SDS011;51436;44.692;39.214;2023-01-28T15:47:32;56.45;;;25.98;;
64923;SDS011;51436;44.692;39.214;2023-01-28T15:50:01;55.53;;;24.17;;
64923;SDS011;51436;44.692;39.214;2023-01-28T15:52:34;54.30;;;23.85;;
64923;SDS011;51436;44.692;39.214;2023-01-28T15:55:03;50.80;;;23.55;;
64923;SDS011;51436;44.692;39.214;2023-01-28T15:57:32;45.45;;;22.05;;
64923;SDS011;51436;44.692;39.214;2023-01-28T16:00:08;55.08;;;21.20;;
64923;SDS011;51436;44.692;39.214;2023-01-28T16:02:44;44.92;;;22.35;;
64923;SDS011;51436;44.692;39.214;2023-01-28T16:05:25;42.20;;;23.38;;
64923;SDS011;51436;44.692;39.214;2023-01-28T16:08:17;52.80;;;22.05;;
64923;SDS011;51436;44.692;39.214;2023-01-28T16:11:21;38.83;;;21.60;;
64923;SDS011;51436;44.692;39.214;2023-01-28T16:14:23;36.65;;;20.27;;
64923;SDS011;51436;44.692;39.214;2023-01-28T16:16:56;38.70;;;21.25;;
64923;SDS011;51436;44.692;39.214;2023-01-28T16:22:35;42.67;;;19.95;;
64923;SDS011;51436;44.692;39.214;2023-01-28T16:27:54;38.90;;;20.67;;
64923;SDS011;51436;44.692;39.214;2023-01-28T16:30:22;43.60;;;22.05;;
64923;SDS011;51436;44.692;39.214;2023-01-28T16:32:49;42.65;;;24.08;;
64923;SDS011;51436;44.692;39.214;2023-01-28T16:35:20;43.70;;;24.05;;
64923;SDS011;51436;44.692;39.214;2023-01-28T16:37:48;46.58;;;24.80;;
64923;SDS011;51436;44.692;39.214;2023-01-28T16:40:16;44.13;;;23.48;;
64923;SDS011;51436;44.692;39.214;2023-01-28T16:42:44;43.30;;;24.30;;
64923;SDS011;51436;44.692;39.214;2023-01-28T16:45:17;47.63;;;24.15;;
64923;SDS011;51436;44.692;39.214;2023-01-28T16:47:48;51.97;;;24.02;;
64923;SDS011;51436;44.692;39.214;2023-01-28T16:50:15;62.22;;;25.95;;
64923;SDS011;51436;44.692;39.214;2023-01-28T16:52:43;65.47;;;31.67;;
64923;SDS011;51436;44.692;39.214;2023-01-28T16:55:12;61.05;;;26.10;;
64923;SDS011;51436;44.692;39.214;2023-01-28T16:57:46;54.50;;;23.15;;
64923;SDS011;51436;44.692;39.214;2023-01-28T17:00:15;54.28;;;24.92;;
64923;SDS011;51436;44.692;39.214;2023-01-28T17:02:44;60.72;;;26.70;;
64923;SDS011;51436;44.692;39.214;2023-01-28T17:05:11;59.00;;;26.52;;
64923;SDS011;51436;44.692;39.214;2023-01-28T17:07:42;51.75;;;24.02;;